Daglege Rapportar

Klikk her for oppdatering!


Detaljar i dag

17/9/21
Time         Wind Dir   Wind Spd  Wind Gust   Humidity       Temp  Raw Barom   Tot Rain Temp Out H Temp Out L  DailyRain   HourRain
                            mps        mps          %         C         mb         mm         C         C         mm         mm
0:00              360          0          1         87       12.6    1020.42     377.20       12.6       12.6       0.00       0.00
1:00              360          0          1         86       12.6    1020.62     377.20       12.7       12.5       0.00       0.00
2:00              360          1          2         80       12.9    1020.79     377.20       12.9       12.5       0.00       0.00
3:00              360          0          1         78       12.8    1020.85     377.20       13.1       12.5       0.00       0.00
4:00              360          0          0         78       12.7    1020.69     377.20       13.1       12.5       0.00       0.00
5:00              360          0          1         78       12.6    1020.62     377.20       13.1       12.4       0.00       0.00
6:00              360          0          1         78       12.5    1020.65     377.20       13.1       12.4       0.00       0.00
7:00              360          0          2         74       12.8    1020.85     377.20       13.1       12.2       0.00       0.00
8:00              360          0          1         77       13.6    1021.12     377.20       13.6       12.2       0.00       0.00
9:00              360          0          2         65       16.2    1021.19     377.20       16.2       12.2       0.00       0.00
10:00             360          0          3         58       16.3    1021.43     377.20       16.7       12.2       0.00       0.00
11:00             360          0          4         54       17.1    1021.43     377.20       17.1       12.2       0.00       0.00
12:00             360          0          4         60       16.4    1021.70     377.20       17.3       12.2       0.00       0.00
13:00             360          2          4         57       16.3    1021.90     377.20       17.3       12.2       0.00       0.00
14:00             360          2          4         55       17.1    1021.77     377.20       17.3       12.2       0.00       0.00
15:00             171          2          4         54       17.2    1021.26     377.20       17.4       12.2       0.00       0.00
16:00             146          1          4         52       17.1    1021.16     377.20       17.6       12.2       0.00       0.00
17:00             132          1          4         49       16.7    1021.16     377.20       17.6       12.2       0.00       0.00

 


Detaljar i gr

16/9/21
Time         Wind Dir   Wind Spd  Wind Gust   Humidity       Temp  Raw Barom   Tot Rain Temp Out H Temp Out L  DailyRain   HourRain
                            mps        mps          %         C         mb         mm         C         C         mm         mm
8:00              360          0          0         93       11.9    1018.29     376.40       15.0        9.3       0.80       0.00
9:00              360          0          0         93       12.3    1018.56     376.60       15.0        9.3       1.00       0.20
10:00             360          0          0         93       12.6    1018.52     376.60       15.0        9.3       1.00       0.20
11:00             360          0          0         92       12.7    1018.76     376.60       15.0        9.3       1.00       0.00
12:00             360          0          0         90       13.0    1018.73     377.00       15.0        9.3       1.40       0.40
13:00             360          0          1         88       13.6    1018.69     377.00       15.0        9.3       1.40       0.20
14:00             360          0          1         89       14.0    1018.46     377.00       15.0        9.3       1.40       0.00
15:00             360          0          2         90       13.9    1018.35     377.00       15.0        9.3       1.40       0.00
16:00             360          0          2         90       13.7    1018.39     377.00       15.0        9.3       1.40       0.00
17:00             360          0          1         90       13.6    1018.62     377.00       15.0        9.3       1.40       0.00
18:00             360          1          1         91       13.3    1018.83     377.00       15.0        9.3       1.40       0.00
19:00             360          0          1         91       12.9    1018.96     377.00       15.0        9.3       1.40       0.00
20:00             360          0          1         92       12.7    1019.47     377.00       15.0        9.3       1.40       0.00
21:00             360          0          1         91       12.7    1019.50     377.20       15.0        9.3       1.60       0.20
22:00             360          0          1         91       12.8    1019.74     377.20       15.0        9.3       1.60       0.00
23:00             360          1          1         90       12.8    1020.08     377.20       15.0        9.3       1.60       0.00